Beerse, Belgium

11:14 AM CET on December 06, 2016 (GMT +0100)
Beerse | | Change Station

Elev 115 ft 51.33 °N, 4.80 °E | Updated 23 seconds ago

Rain
Rain
35.6 °F
Feels Like 36 °F
N
1.9
Wind Variable Wind from South
Gusts 4.0 mph

Today
High -- | Low -- °F
--% Chance of Precip.
Yesterday
High -- | Low -- °F
Precip. -- in
Pressure 30.42 in
Visibility 2.8 miles
Clouds
Windchill 36 °F
Dew Point 35 °F
Humidity 97%
Rainfall 0.00 in
Snow Depth Not available.
8:30 AM 4:33 PM
Waxing Crescent, 40% visible
METAR EBAW 060950Z 12003KT 4500 BR NSC 00/M01 Q1030 BECMG 6000 NSW
Pressure 30.42 in
Visibility 2.8 miles
Clouds
Windchill 36 °F
Dew Point 35 °F
Humidity 97%
Rainfall 0.00 in
Snow Depth Not available.
8:30 AM 4:33 PM
Waxing Crescent, 40% visible
METAR EBAW 060950Z 12003KT 4500 BR NSC 00/M01 Q1030 BECMG 6000 NSW

10-Day Weather Forecast

×

Almanac

Astronomy

Dec. 06, 2016 Rise Set
Actual Time
Civil Twilight
Nautical Twilight
Astronomical Twilight
Moon
Length of Visible Light
Length of Day
Tomorrow will be .
, % of the Moon is Illuminated

Today's Extremes

Country Highs Country Lows

Community

WunderPhotos

Upload Photos

1,955,935 photos uploaded!

WunderBlog® & News

Nearby

Air Quality

  Air Quality AQ Index Pollutant
Not available.

Snow Depth

Station Depth Elevation

Earthquake Activity

City Distance Mag. Time & Date
Minimum magnitude displayed is 2.5.

Coastal Water Temperatures

Place Temperature

Stations

Nearby Weather Stations

Station Location Temp. Windchill Dew Point Humidity Wind Precip. Elev Updated Type